ADDS METAR Data INFO
IDs: Format: Raw Decoded Include TAF

Data at: 0151 UTC 22 Jun 2018

EGBB 220120Z 31005KT CAVOK 10/07 Q1030

No METAR found for EGBJ

EGVN 220050Z 29004KT CAVOK 10/05 Q1030 NOSIG

EGTK 212050Z 31006KT CAVOK 12/05 Q1029

No METAR found for EGWC

No METAR found for EGTC

EGNX 220120Z 27010KT CAVOK 08/07 Q1030